Terminal Aerodrome Forecast
Issued by NWS

Home | Current Version | Previous Version | Text Only | Print | Product List | Glossary On
Versions: 1 2 3 4 5 6 7 8 9 10 11 12 13 14 15 16 17 18 19 20 21 22 23 24 25 26 27
000
FTUS46 KLOX 250100 AAB
TAFPRB
TAF AMD
KPRB 250102Z 2501/2524 30007KT P6SM BKN030 BKN050
     FM250300 31015G25KT P6SM BKN050
     FM250800 33010KT P6SM SCT100
     FM252000 33014KT P6SM SCT150=

USA.gov is the U.S. government's official web portal to all federal, state and local government web resources and services.